| time (UTC) | temp F | wind direction | speed MPH | gust MPH | rain 1hr in | rain 24hr in | rain mn in | humidity % | barometer mb |
| 20260506091300 | 55 | 65 | 2.0 | 5.0 | 0.02 | 0.54 | 0.31 | 97 | 1012.4 |
| 20260506090800 | 55 | 64 | 2.0 | 5.0 | 0.02 | 0.54 | 0.31 | 97 | 1012.4 |
| 20260506090301 | 55 | 75 | 1.0 | 5.0 | 0.03 | 0.54 | 0.31 | 97 | 1012.4 |
| 20260506085800 | 55 | 254 | 1.0 | 2.0 | 0.03 | 0.54 | 0.31 | 97 | 1012.3 |
| 20260506085300 | 55 | 254 | 0.0 | 2.0 | 0.04 | 0.54 | 0.31 | 97 | 1012.3 |
| 20260506084800 | 55 | 254 | 0.0 | 2.0 | 0.04 | 0.54 | 0.31 | 97 | 1012.3 |
| 20260506084300 | 55 | 254 | 0.0 | 2.0 | 0.05 | 0.56 | 0.31 | 97 | 1012.3 |
| 20260506083800 | 54 | 254 | 0.0 | 2.0 | 0.06 | 0.56 | 0.31 | 97 | 1012.3 |
| 20260506083300 | 54 | 254 | 0.0 | 2.0 | 0.06 | 0.56 | 0.31 | 97 | 1012.3 |
| 20260506082801 | 54 | 254 | 0.0 | 2.0 | 0.07 | 0.56 | 0.31 | 97 | 1012.4 |
| 20260506082301 | 54 | 254 | 0.0 | 1.0 | 0.07 | 0.56 | 0.31 | 97 | 1012.4 |
| 20260506081800 | 53 | 254 | 0.0 | 1.0 | 0.07 | 0.57 | 0.31 | 97 | 1012.4 |
| 20260506081300 | 53 | 256 | 2.0 | 2.0 | 0.06 | 0.56 | 0.29 | 97 | 1012.4 |
| 20260506080300 | 53 | 256 | 0.0 | 3.0 | 0.07 | 0.55 | 0.28 | 97 | 1012.4 |
| 20260506073301 | 53 | 188 | 0.0 | 5.0 | 0.12 | 0.52 | 0.25 | 97 | 1012.6 |
| 20260506072800 | 53 | 186 | 0.0 | 3.0 | 0.13 | 0.50 | 0.24 | 97 | 1012.5 |
| 20260506072300 | 53 | 247 | 0.0 | 2.0 | 0.14 | 0.50 | 0.24 | 97 | 1012.5 |
| 20260506071801 | 53 | 248 | 0.0 | 2.0 | 0.16 | 0.50 | 0.24 | 96 | 1012.5 |
| 20260506071301 | 53 | 248 | 0.0 | 2.0 | 0.15 | 0.49 | 0.23 | 96 | 1012.7 |
| 20260506070800 | 53 | 248 | 0.0 | 2.0 | 0.15 | 0.48 | 0.22 | 96 | 1012.7 |
| 20260506070300 | 53 | 248 | 0.0 | 0.0 | 0.16 | 0.47 | 0.21 | 96 | 1012.7 |
| 20260506062300 | 53 | 79 | 0.0 | 2.0 | 0.10 | 0.36 | 0.10 | 96 | 1012.5 |
| 20260506061801 | 53 | 78 | 0.0 | 2.0 | 0.08 | 0.34 | 0.08 | 96 | 1012.5 |
| 20260506061301 | 53 | 78 | 0.0 | 2.0 | 0.08 | 0.34 | 0.08 | 96 | 1012.6 |
| 20260506060800 | 52 | 78 | 0.0 | 2.0 | 0.07 | 0.33 | 0.07 | 96 | 1012.6 |
| 20260506060300 | 52 | 273 | 0.0 | 0.0 | 0.05 | 0.31 | 0.05 | 96 | 1012.6 |
| 20260506050800 | 52 | 281 | 0.0 | 0.0 | 0.00 | 0.26 | 0.00 | 96 | 1012.6 |
| 20260506050301 | 52 | 281 | 2.0 | 3.0 | 0.00 | 0.26 | 0.00 | 96 | 1012.6 |
| 20260506044300 | 52 | 261 | 1.0 | 3.0 | 0.00 | 0.26 | 0.00 | 96 | 1012.4 |
| 20260506043801 | 52 | 261 | 1.0 | 3.0 | 0.00 | 0.26 | 0.00 | 96 | 1012.4 |
| 20260506043300 | 52 | 288 | 0.0 | 3.0 | 0.00 | 0.26 | 0.00 | 96 | 1012.4 |
| 20260506042801 | 52 | 16 | 0.0 | 2.0 | 0.00 | 0.26 | 0.00 | 96 | 1012.5 |
| 20260506041301 | 52 | 278 | 0.0 | 5.0 | 0.00 | 0.26 | 0.00 | 96 | 1012.8 |
| 20260506040801 | 52 | 311 | 0.0 | 5.0 | 0.00 | 0.26 | 0.00 | 96 | 1012.8 |
| 20260506040300 | 52 | 339 | 0.0 | 1.0 | 0.00 | 0.26 | 0.00 | 96 | 1012.8 |
| 20260506035301 | 52 | 339 | 1.0 | 2.0 | 0.00 | 0.26 | 0.00 | 96 | 1012.9 |
| 20260506034301 | 52 | 262 | 0.0 | 2.0 | 0.00 | 0.26 | 0.00 | 96 | 1013.0 |
| 20260506033801 | 52 | 262 | 0.0 | 2.0 | 0.00 | 0.26 | 0.00 | 96 | 1013.0 |
| 20260506032801 | 52 | 192 | 0.0 | 1.0 | 0.00 | 0.26 | 0.00 | 96 | 1013.1 |
| 20260506032301 | 52 | 192 | 0.0 | 1.0 | 0.00 | 0.26 | 0.00 | 96 | 1013.1 |
| 20260506031801 | 52 | 192 | 0.0 | 0.0 | 0.00 | 0.26 | 0.00 | 96 | 1013.1 |
| 20260506031301 | 52 | 192 | 0.0 | 3.0 | 0.00 | 0.26 | 0.00 | 96 | 1013.4 |
| 20260506030801 | 52 | 192 | 0.0 | 3.0 | 0.00 | 0.26 | 0.00 | 96 | 1013.4 |
| 20260506030301 | 52 | 3 | 0.0 | 2.0 | 0.00 | 0.26 | 0.00 | 96 | 1013.4 |
| 20260506025801 | 52 | 337 | 0.0 | 2.0 | 0.00 | 0.26 | 0.00 | 96 | 1013.2 |
| 20260506025305 | 52 | 337 | 0.0 | 2.0 | 0.00 | 0.26 | 0.00 | 96 | 1013.2 |
| 20260506023801 | 52 | 337 | 0.0 | 2.0 | 0.00 | 0.26 | 0.00 | 96 | 1013.3 |
| 20260506022801 | 52 | 340 | 0.0 | 2.0 | 0.00 | 0.26 | 0.00 | 96 | 1013.2 |
| 20260506022300 | 52 | 341 | 0.0 | 2.0 | 0.00 | 0.26 | 0.00 | 96 | 1013.2 |
| 20260506021801 | 52 | 341 | 0.0 | 3.0 | 0.00 | 0.26 | 0.00 | 96 | 1013.2 |
| 20260506021301 | 52 | 341 | 0.0 | 3.0 | 0.00 | 0.26 | 0.00 | 96 | 1013.4 |
| 20260506020801 | 52 | 306 | 0.0 | 2.0 | 0.00 | 0.26 | 0.00 | 96 | 1013.4 |
| 20260506020301 | 52 | 8 | 0.0 | 2.0 | 0.00 | 0.26 | 0.00 | 96 | 1013.4 |
| 20260506015301 | 52 | 17 | 0.0 | 2.0 | 0.00 | 0.26 | 0.00 | 96 | 1013.5 |
| 20260506014800 | 52 | 17 | 0.0 | 2.0 | 0.00 | 0.26 | 0.00 | 96 | 1013.5 |
| 20260506014300 | 52 | 17 | 0.0 | 2.0 | 0.00 | 0.26 | 0.00 | 96 | 1013.5 |
| 20260506013801 | 52 | 17 | 0.0 | 3.0 | 0.00 | 0.26 | 0.00 | 96 | 1013.5 |
| 20260506013301 | 52 | 17 | 0.0 | 3.0 | 0.00 | 0.26 | 0.00 | 96 | 1013.5 |
| 20260506012301 | 52 | 24 | 0.0 | 2.0 | 0.00 | 0.26 | 0.00 | 96 | 1013.5 |
| 20260506011801 | 52 | 24 | 0.0 | 2.0 | 0.00 | 0.26 | 0.00 | 96 | 1013.5 |
| 20260506011301 | 52 | 284 | 0.0 | 1.0 | 0.00 | 0.26 | 0.00 | 96 | 1013.5 |
| 20260506010301 | 52 | 280 | 1.0 | 3.0 | 0.00 | 0.26 | 0.00 | 96 | 1013.5 |
| 20260506005801 | 52 | 280 | 1.0 | 3.0 | 0.00 | 0.26 | 0.00 | 96 | 1013.5 |
| 20260506005301 | 52 | 280 | 1.0 | 3.0 | 0.00 | 0.26 | 0.00 | 96 | 1013.5 |
| 20260506004801 | 53 | 280 | 1.0 | 3.0 | 0.00 | 0.26 | 0.00 | 96 | 1013.5 |
| 20260506004301 | 53 | 282 | 0.0 | 2.0 | 0.00 | 0.26 | 0.00 | 96 | 1013.7 |
| 20260506003801 | 53 | 282 | 0.0 | 2.0 | 0.00 | 0.26 | 0.00 | 96 | 1013.7 |
| 20260506003301 | 53 | 282 | 0.0 | 2.0 | 0.00 | 0.26 | 0.00 | 96 | 1013.7 |
| 20260506002801 | 53 | 282 | 0.0 | 1.0 | 0.00 | 0.26 | 0.00 | 96 | 1013.7 |
| 20260506002301 | 53 | 282 | 0.0 | 1.0 | 0.00 | 0.26 | 0.00 | 96 | 1013.7 |
| 20260506001301 | 53 | 282 | 0.0 | 0.0 | 0.00 | 0.26 | 0.00 | 96 | 1013.8 |
| 20260506000801 | 53 | 282 | 0.0 | 2.0 | 0.00 | 0.26 | 0.00 | 96 | 1013.8 |
| 20260506000302 | 53 | 282 | 1.0 | 3.0 | 0.00 | 0.26 | 0.00 | 96 | 1013.8 |
| 20260505235801 | 53 | 282 | 1.0 | 3.0 | 0.00 | 0.26 | 0.00 | 96 | 1013.9 |
| 20260505235301 | 53 | 282 | 0.0 | 2.0 | 0.00 | 0.26 | 0.00 | 96 | 1013.9 |
| 20260505234302 | 53 | 0 | 0.0 | 1.0 | 0.00 | 0.26 | 0.00 | 96 | 1013.9 |
| 20260505233801 | 53 | 0 | 0.0 | 1.0 | 0.00 | 0.26 | 0.00 | 96 | 1013.9 |
| 20260505233301 | 53 | 1 | 0.0 | 0.0 | 0.00 | 0.26 | 0.00 | 96 | 1013.9 |
| 20260505232801 | 53 | 1 | 0.0 | 0.0 | 0.00 | 0.26 | 0.00 | 96 | 1014.0 |
| 20260505232305 | 53 | 1 | 0.0 | 2.0 | 0.00 | 0.26 | 0.00 | 96 | 1014.0 |
| 20260505231802 | 53 | 1 | 0.0 | 2.0 | 0.00 | 0.26 | 0.00 | 96 | 1014.0 |
| 20260505231301 | 53 | 1 | 0.0 | 2.0 | 0.00 | 0.26 | 0.00 | 96 | 1014.1 |
| 20260505230301 | 53 | 274 | 0.0 | 2.0 | 0.00 | 0.26 | 0.00 | 96 | 1014.1 |
| 20260505225801 | 53 | 274 | 0.0 | 0.0 | 0.00 | 0.26 | 0.00 | 96 | 1014.3 |
| 20260505225301 | 53 | 274 | 0.0 | 2.0 | 0.00 | 0.26 | 0.00 | 96 | 1014.3 |
| 20260505224802 | 53 | 274 | 0.0 | 2.0 | 0.00 | 0.26 | 0.00 | 96 | 1014.3 |
| 20260505223801 | 53 | 276 | 0.0 | 2.0 | 0.00 | 0.26 | 0.00 | 96 | 1014.2 |
| 20260505223302 | 53 | 276 | 0.0 | 2.0 | 0.00 | 0.26 | 0.00 | 96 | 1014.2 |
| 20260505222801 | 53 | 276 | 0.0 | 0.0 | 0.00 | 0.26 | 0.00 | 96 | 1014.3 |
| 20260505221802 | 53 | 276 | 1.0 | 2.0 | 0.00 | 0.26 | 0.00 | 96 | 1014.3 |
| 20260505221301 | 53 | 276 | 1.0 | 5.0 | 0.00 | 0.26 | 0.00 | 96 | 1014.3 |
| 20260505220849 | 53 | 278 | 1.0 | 5.0 | 0.00 | 0.26 | 0.00 | 96 | 1014.3 |
| 20260505220302 | 53 | 262 | 1.0 | 3.0 | 0.00 | 0.26 | 0.00 | 96 | 1014.3 |
| 20260505215305 | 53 | 238 | 0.0 | 3.0 | 0.00 | 0.26 | 0.26 | 96 | 1014.4 |
| 20260505214801 | 53 | 237 | 0.0 | 2.0 | 0.00 | 0.26 | 0.26 | 96 | 1014.4 |
| 20260505214302 | 53 | 237 | 0.0 | 2.0 | 0.00 | 0.26 | 0.26 | 96 | 1014.3 |
| 20260505213802 | 53 | 237 | 0.0 | 2.0 | 0.00 | 0.26 | 0.26 | 96 | 1014.3 |
| 20260505213301 | 53 | 237 | 0.0 | 2.0 | 0.00 | 0.26 | 0.26 | 96 | 1014.3 |
| 20260505212802 | 53 | 237 | 0.0 | 2.0 | 0.00 | 0.26 | 0.26 | 96 | 1014.4 |
| 20260505212302 | 53 | 237 | 0.0 | 3.0 | 0.00 | 0.26 | 0.26 | 96 | 1014.4 |
| 20260505211802 | 53 | 255 | 0.0 | 5.0 | 0.00 | 0.26 | 0.26 | 96 | 1014.4 |
| 20260505211301 | 53 | 253 | 0.0 | 5.0 | 0.00 | 0.26 | 0.26 | 96 | 1014.5 |
| 20260505210802 | 53 | 285 | 0.0 | 3.0 | 0.00 | 0.26 | 0.26 | 96 | 1014.5 |
| 20260505210301 | 53 | 295 | 0.0 | 3.0 | 0.00 | 0.26 | 0.26 | 96 | 1014.5 |
| 20260505205801 | 53 | 325 | 0.0 | 0.0 | 0.00 | 0.26 | 0.26 | 96 | 1014.5 |
| 20260505205304 | 53 | 325 | 0.0 | 0.0 | 0.00 | 0.26 | 0.26 | 96 | 1014.5 |
| 20260505204801 | 53 | 325 | 0.0 | 2.0 | 0.00 | 0.26 | 0.26 | 96 | 1014.5 |
| 20260505204302 | 53 | 325 | 0.0 | 2.0 | 0.00 | 0.26 | 0.26 | 96 | 1014.6 |
| 20260505203802 | 53 | 325 | 0.0 | 2.0 | 0.00 | 0.26 | 0.26 | 96 | 1014.6 |
| 20260505203302 | 53 | 325 | 0.0 | 0.0 | 0.00 | 0.26 | 0.26 | 96 | 1014.6 |
| 20260505202801 | 53 | 325 | 0.0 | 0.0 | 0.00 | 0.26 | 0.26 | 96 | 1014.7 |
| 20260505202301 | 53 | 325 | 0.0 | 0.0 | 0.00 | 0.26 | 0.26 | 96 | 1014.7 |
| 20260505201301 | 53 | 325 | 1.0 | 2.0 | 0.00 | 0.26 | 0.26 | 96 | 1014.8 |
| 20260505200801 | 53 | 321 | 1.0 | 3.0 | 0.00 | 0.26 | 0.26 | 96 | 1014.8 |
| 20260505200302 | 53 | 321 | 0.0 | 3.0 | 0.00 | 0.26 | 0.26 | 96 | 1014.8 |
| 20260505195802 | 53 | 323 | 0.0 | 3.0 | 0.00 | 0.26 | 0.26 | 96 | 1014.7 |
| 20260505195305 | 53 | 323 | 0.0 | 2.0 | 0.00 | 0.26 | 0.26 | 96 | 1014.7 |
| 20260505194301 | 53 | 323 | 0.0 | 2.0 | 0.00 | 0.26 | 0.26 | 96 | 1014.6 |
| 20260505193802 | 53 | 323 | 0.0 | 2.0 | 0.00 | 0.26 | 0.26 | 96 | 1014.6 |
| 20260505193301 | 53 | 323 | 0.0 | 2.0 | 0.00 | 0.26 | 0.26 | 96 | 1014.6 |
| 20260505192803 | 53 | 323 | 0.0 | 1.0 | 0.00 | 0.26 | 0.26 | 96 | 1014.5 |
| 20260505192301 | 53 | 323 | 0.0 | 2.0 | 0.00 | 0.26 | 0.26 | 95 | 1014.5 |
| 20260505191302 | 53 | 323 | 0.0 | 2.0 | 0.00 | 0.26 | 0.26 | 95 | 1014.5 |
| 20260505190801 | 53 | 323 | 0.0 | 0.0 | 0.00 | 0.26 | 0.26 | 95 | 1014.5 |
| 20260505185802 | 53 | 323 | 0.0 | 0.0 | 0.00 | 0.26 | 0.26 | 95 | 1014.4 |
| 20260505185305 | 53 | 323 | 0.0 | 0.0 | 0.01 | 0.26 | 0.26 | 95 | 1014.4 |
| 20260505184802 | 53 | 323 | 0.0 | 0.0 | 0.01 | 0.26 | 0.26 | 95 | 1014.4 |
| 20260505184302 | 53 | 323 | 0.0 | 0.0 | 0.01 | 0.26 | 0.26 | 95 | 1014.2 |
| 20260505183801 | 53 | 323 | 0.0 | 0.0 | 0.01 | 0.26 | 0.26 | 95 | 1014.2 |
| 20260505183301 | 53 | 323 | 0.0 | 0.0 | 0.02 | 0.26 | 0.26 | 95 | 1014.2 |
| 20260505182801 | 53 | 323 | 0.0 | 1.0 | 0.02 | 0.26 | 0.26 | 95 | 1014.2 |
| 20260505182305 | 53 | 323 | 0.0 | 1.0 | 0.02 | 0.26 | 0.26 | 95 | 1014.2 |
| 20260505180802 | 53 | 322 | 0.0 | 2.0 | 0.03 | 0.26 | 0.26 | 95 | 1014.1 |
| 20260505180302 | 53 | 322 | 0.0 | 2.0 | 0.03 | 0.26 | 0.26 | 95 | 1014.1 |
| 20260505175802 | 53 | 322 | 0.0 | 2.0 | 0.03 | 0.26 | 0.26 | 95 | 1014.1 |
| 20260505175305 | 54 | 322 | 0.0 | 0.0 | 0.02 | 0.25 | 0.25 | 95 | 1014.1 |
| 20260505174801 | 54 | 322 | 0.0 | 0.0 | 0.02 | 0.25 | 0.25 | 95 | 1014.1 |
| 20260505174302 | 54 | 322 | 0.0 | 2.0 | 0.02 | 0.25 | 0.25 | 95 | 1014.1 |
| 20260505173802 | 54 | 322 | 0.0 | 2.0 | 0.03 | 0.25 | 0.25 | 95 | 1014.1 |
| 20260505173302 | 54 | 33 | 0.0 | 0.0 | 0.02 | 0.24 | 0.24 | 95 | 1014.1 |
| 20260505172801 | 54 | 33 | 0.0 | 0.0 | 0.02 | 0.24 | 0.24 | 95 | 1014.1 |
| 20260505172305 | 54 | 33 | 0.0 | 0.0 | 0.02 | 0.24 | 0.24 | 95 | 1014.1 |
| 20260505171802 | 54 | 33 | 0.0 | 0.0 | 0.02 | 0.24 | 0.24 | 95 | 1014.1 |
| 20260505171302 | 54 | 33 | 0.0 | 0.0 | 0.01 | 0.23 | 0.23 | 95 | 1014.2 |
| 20260505170802 | 54 | 33 | 0.0 | 0.0 | 0.01 | 0.23 | 0.23 | 95 | 1014.2 |
| 20260505170301 | 54 | 33 | 1.0 | 2.0 | 0.01 | 0.23 | 0.23 | 95 | 1014.2 |
| 20260505165305 | 54 | 33 | 0.0 | 3.0 | 0.03 | 0.23 | 0.23 | 95 | 1014.2 |
| 20260505164802 | 54 | 193 | 0.0 | 3.0 | 0.03 | 0.23 | 0.23 | 95 | 1014.2 |
| 20260505164302 | 54 | 213 | 0.0 | 0.0 | 0.03 | 0.23 | 0.23 | 95 | 1014.4 |
| 20260505163802 | 54 | 286 | 0.0 | 0.0 | 0.02 | 0.22 | 0.22 | 95 | 1014.4 |
| 20260505163301 | 54 | 286 | 0.0 | 0.0 | 0.02 | 0.22 | 0.22 | 95 | 1014.4 |
| 20260505162801 | 54 | 286 | 0.0 | 0.0 | 0.02 | 0.22 | 0.22 | 95 | 1014.5 |
| 20260505162301 | 54 | 286 | 0.0 | 0.0 | 0.02 | 0.22 | 0.22 | 95 | 1014.5 |
| 20260505161801 | 54 | 286 | 0.0 | 0.0 | 0.02 | 0.22 | 0.22 | 95 | 1014.5 |
| 20260505161302 | 55 | 286 | 0.0 | 0.0 | 0.02 | 0.22 | 0.22 | 95 | 1014.6 |
| 20260505160802 | 55 | 286 | 0.0 | 0.0 | 0.03 | 0.22 | 0.22 | 95 | 1014.6 |
| 20260505160302 | 55 | 286 | 0.0 | 0.0 | 0.03 | 0.22 | 0.22 | 95 | 1014.6 |
| 20260505153302 | 55 | 286 | 0.0 | 0.0 | 0.01 | 0.20 | 0.20 | 95 | 1014.6 |
| 20260505152802 | 54 | 286 | 0.0 | 0.0 | 0.01 | 0.20 | 0.20 | 95 | 1014.6 |
| 20260505152304 | 54 | 286 | 0.0 | 0.0 | 0.01 | 0.20 | 0.20 | 95 | 1014.6 |
| 20260505151801 | 54 | 286 | 0.0 | 0.0 | 0.01 | 0.20 | 0.20 | 95 | 1014.6 |
| 20260505151301 | 54 | 286 | 0.0 | 0.0 | 0.01 | 0.20 | 0.20 | 94 | 1014.6 |
| 20260505150302 | 54 | 291 | 0.0 | 0.0 | 0.00 | 0.19 | 0.19 | 94 | 1014.6 |
| 20260505140302 | 55 | 46 | 0.0 | 0.0 | 0.02 | 0.19 | 0.19 | 94 | 1014.9 |
| 20260505130302 | 55 | 268 | 0.0 | 0.0 | 0.02 | 0.17 | 0.17 | 94 | 1015.2 |
| 20260505124802 | 55 | 176 | 0.0 | 0.0 | 0.01 | 0.16 | 0.16 | 94 | 1015.2 |
| 20260505124304 | 56 | 176 | 0.0 | 0.0 | 0.01 | 0.16 | 0.16 | 94 | 1015.2 |
| 20260505123802 | 56 | 176 | 0.0 | 2.0 | 0.01 | 0.16 | 0.16 | 94 | 1015.2 |
| 20260505122802 | 56 | 207 | 0.0 | 5.0 | 0.00 | 0.15 | 0.15 | 94 | 1015.1 |
| 20260505122305 | 56 | 244 | 0.0 | 2.0 | 0.00 | 0.15 | 0.15 | 94 | 1015.1 |
| 20260505121802 | 56 | 244 | 0.0 | 2.0 | 0.00 | 0.15 | 0.15 | 94 | 1015.1 |
| 20260505121311 | 56 | 176 | 0.0 | 2.0 | 0.00 | 0.15 | 0.15 | 94 | 1015.1 |
| 20260505120802 | 56 | 175 | 0.0 | 2.0 | 0.00 | 0.15 | 0.15 | 94 | 1015.1 |
| 20260505120302 | 56 | 176 | 0.0 | 2.0 | 0.00 | 0.15 | 0.15 | 94 | 1015.1 |
| 20260505115304 | 56 | 176 | 0.0 | 2.0 | 0.01 | 0.15 | 0.15 | 94 | 1015.2 |
| 20260505114803 | 56 | 176 | 0.0 | 2.0 | 0.02 | 0.15 | 0.15 | 94 | 1015.2 |
| 20260505114301 | 56 | 176 | 0.0 | 2.0 | 0.02 | 0.15 | 0.15 | 94 | 1015.2 |
| 20260505113302 | 56 | 176 | 2.0 | 2.0 | 0.04 | 0.15 | 0.15 | 94 | 1015.2 |
| 20260505112802 | 56 | 175 | 2.0 | 3.0 | 0.04 | 0.15 | 0.15 | 94 | 1015.3 |
| 20260505112304 | 56 | 176 | 1.0 | 3.0 | 0.05 | 0.15 | 0.15 | 94 | 1015.3 |
| 20260505111303 | 56 | 194 | 0.0 | 3.0 | 0.06 | 0.15 | 0.15 | 94 | 1015.4 |
| 20260505110802 | 56 | 202 | 0.0 | 3.0 | 0.06 | 0.15 | 0.15 | 94 | 1015.4 |
| 20260505110302 | 56 | 200 | 0.0 | 3.0 | 0.07 | 0.15 | 0.15 | 94 | 1015.4 |
| 20260505101802 | 56 | 169 | 2.0 | 3.0 | 0.05 | 0.09 | 0.09 | 93 | 1015.6 |
| 20260505101303 | 56 | 201 | 1.0 | 3.0 | 0.06 | 0.09 | 0.09 | 94 | 1015.5 |
| 20260505100803 | 56 | 279 | 1.0 | 2.0 | 0.06 | 0.09 | 0.09 | 93 | 1015.5 |
| 20260505100304 | 56 | 338 | 0.0 | 3.0 | 0.05 | 0.08 | 0.08 | 93 | 1015.5 |
| 20260505095802 | 56 | 60 | 0.0 | 3.0 | 0.05 | 0.08 | 0.08 | 93 | 1015.6 |
| 20260505095304 | 56 | 93 | 0.0 | 0.0 | 0.03 | 0.06 | 0.06 | 93 | 1015.6 |
| 20260505094802 | 56 | 115 | 0.0 | 0.0 | 0.03 | 0.06 | 0.06 | 93 | 1015.6 |
| 20260505094302 | 56 | 115 | 0.0 | 0.0 | 0.04 | 0.06 | 0.06 | 93 | 1015.6 |
| 20260505093803 | 56 | 169 | 0.0 | 2.0 | 0.04 | 0.06 | 0.06 | 92 | 1015.6 |
| 20260505093304 | 56 | 212 | 0.0 | 3.0 | 0.05 | 0.06 | 0.06 | 92 | 1015.6 |